Terminal Aerodrome Forecast
Issued by NWS

Home | Current Version | Previous Version | Text Only | Print | Product List | Glossary On
Versions: 1 2 3 4 5 6 7 8 9 10 11 12 13 14 15 16
000
FTUS44 KTSA 251100
TAFMLC
TAF
KMLC 251131Z 2512/2612 18008KT P6SM BKN250
     FM251400 18014G20KT P6SM BKN250
     FM251800 19017G28KT P6SM SCT250
     FM260000 18012KT P6SM SCT250
     FM260900 18012KT P6SM BKN015=

USA.gov is the U.S. government's official web portal to all federal, state and local government web resources and services.